createdAt,value
2022-08-19T00:02:50.305Z,38.3588
2022-08-19T00:07:52.284Z,39.24931
2022-08-19T00:12:53.909Z,39.19244
2022-08-19T00:17:55.556Z,36.2404
2022-08-19T00:22:57.190Z,34.31108
2022-08-19T00:27:58.767Z,36.30553
2022-08-19T00:33:00.388Z,33.80628
2022-08-19T00:38:02.019Z,31.0069
2022-08-19T00:43:03.605Z,30.714
2022-08-19T00:48:05.190Z,33.11595
2022-08-19T00:53:16.319Z,32.36464
2022-08-19T00:58:18.122Z,35.35087
2022-08-19T01:03:19.814Z,35.73273
2022-08-19T01:08:21.480Z,33.9127
2022-08-19T01:13:23.071Z,34.30441
2022-08-19T01:18:24.675Z,35.02301
2022-08-19T01:23:26.319Z,34.25612
2022-08-19T01:28:33.851Z,33.97274
2022-08-19T01:33:36.165Z,34.08933
2022-08-19T01:38:37.756Z,33.85425
2022-08-19T01:44:09.697Z,32.84656
2022-08-19T01:49:20.751Z,33.03876
2022-08-19T01:54:26.986Z,32.56828
2022-08-19T01:59:29.479Z,29.96843
2022-08-19T02:04:31.068Z,31.96596
2022-08-19T02:09:32.682Z,31.88717
2022-08-19T02:14:34.386Z,30.90175
2022-08-19T02:19:36.031Z,30.19683
2022-08-19T02:24:40.683Z,30.44239
2022-08-19T02:29:42.343Z,29.75083
2022-08-19T02:34:43.959Z,30.75911
2022-08-19T02:39:45.613Z,29.10723
2022-08-19T02:44:47.255Z,30.05769
2022-08-19T02:49:48.943Z,30.0002
2022-08-19T02:54:50.581Z,30.18857
2022-08-19T02:59:52.163Z,28.76796
2022-08-19T03:04:53.838Z,29.24923
2022-08-19T03:09:55.461Z,29.58373
2022-08-19T03:14:57.267Z,28.86295
2022-08-19T03:19:58.952Z,28.90265
2022-08-19T03:25:00.559Z,27.41758
2022-08-19T03:30:02.198Z,27.98397
2022-08-19T03:35:03.794Z,28.15138
2022-08-19T03:40:05.443Z,27.77558
2022-08-19T03:45:07.056Z,27.79909
2022-08-19T03:50:08.669Z,25.761
2022-08-19T03:55:10.282Z,26.7667
2022-08-19T04:00:13.597Z,27.20252
2022-08-19T04:05:15.740Z,26.30038
2022-08-19T04:10:17.379Z,26.90265
2022-08-19T04:15:18.980Z,25.81817
2022-08-19T04:20:21.065Z,26.34421
2022-08-19T04:25:22.670Z,26.01925
2022-08-19T04:30:24.265Z,24.89952
2022-08-19T04:35:25.857Z,25.03039
2022-08-19T04:40:27.524Z,25.86487
2022-08-19T04:45:29.121Z,25.14157
2022-08-19T04:50:41.496Z,25.44398
2022-08-19T04:55:43.101Z,24.95098
2022-08-19T05:00:44.741Z,25.24767
2022-08-19T05:05:46.447Z,22.81512
2022-08-19T05:10:48.030Z,24.41987
2022-08-19T05:15:49.633Z,24.38366
2022-08-19T05:20:51.247Z,24.96401
2022-08-19T05:25:52.915Z,24.94336
2022-08-19T05:30:54.537Z,22.06103
2022-08-19T05:35:56.122Z,24.02503
2022-08-19T05:40:57.711Z,23.695
2022-08-19T05:45:59.335Z,23.50568
2022-08-19T05:51:00.971Z,23.35194
2022-08-19T05:56:02.559Z,23.79664
2022-08-19T06:01:04.171Z,23.64544
2022-08-19T06:06:05.789Z,23.07972
2022-08-19T06:11:07.368Z,23.39768
2022-08-19T06:16:08.961Z,23.19089
2022-08-19T06:21:10.587Z,23.4628
2022-08-19T06:26:12.162Z,22.99776
2022-08-19T06:31:13.763Z,22.10233
2022-08-19T06:36:15.374Z,22.55147
2022-08-19T06:41:16.987Z,20.86068
2022-08-19T06:46:18.630Z,22.24844
2022-08-19T06:51:20.455Z,22.82878
2022-08-19T06:56:23.055Z,22.59976
2022-08-19T07:01:24.802Z,22.52257
2022-08-19T07:06:43.740Z,21.84695
2022-08-19T07:11:46.200Z,21.87299
2022-08-19T07:16:47.807Z,20.92293
2022-08-19T07:21:49.453Z,22.00164
2022-08-19T07:26:52.232Z,20.53351
2022-08-19T07:31:53.836Z,21.18594
2022-08-19T07:36:55.941Z,21.97591
2022-08-19T07:41:57.569Z,21.24915
2022-08-19T07:46:59.190Z,21.54805
2022-08-19T07:52:00.878Z,21.08588
2022-08-19T07:57:02.485Z,21.34603
2022-08-19T08:02:04.109Z,21.17704
2022-08-19T08:07:05.770Z,21.26185
2022-08-19T08:12:33.141Z,21.07413
2022-08-19T08:17:49.386Z,21.20309
2022-08-19T08:22:53.401Z,21.16275
2022-08-19T08:27:55.679Z,21.14401
2022-08-19T08:32:57.470Z,20.32133
2022-08-19T08:38:00.032Z,20.40709
2022-08-19T08:48:03.260Z,20.54431
2022-08-19T08:53:04.886Z,20.25717
2022-08-19T08:58:06.485Z,20.47411
2022-08-19T09:03:08.296Z,20.21461
2022-08-19T09:08:11.998Z,20.30132
2022-08-19T09:13:13.787Z,20.00179
2022-08-19T09:18:19.481Z,19.99798
2022-08-19T09:23:26.623Z,20.18729
2022-08-19T09:28:29.127Z,19.22836
2022-08-19T09:33:34.159Z,19.4993
2022-08-19T09:38:35.931Z,19.44625
2022-08-19T09:43:47.820Z,19.57997
2022-08-19T09:48:49.800Z,18.0941
2022-08-19T09:53:51.577Z,19.45133
2022-08-19T09:58:54.519Z,19.35033
2022-08-19T10:03:56.137Z,19.07875
2022-08-19T10:08:57.741Z,19.32206
2022-08-19T10:14:00.611Z,19.21597
2022-08-19T10:19:03.628Z,19.24424
2022-08-19T10:24:09.357Z,19.11496
2022-08-19T10:29:11.356Z,18.84625
2022-08-19T10:34:27.116Z,18.65853
2022-08-19T10:39:30.691Z,18.75318
2022-08-19T10:44:32.841Z,18.49495
2022-08-19T10:49:34.504Z,18.88722
2022-08-19T10:54:36.122Z,18.07219
2022-08-19T10:59:37.987Z,18.56292
2022-08-19T11:04:39.639Z,18.49717
2022-08-19T11:09:41.270Z,18.70776
2022-08-19T11:14:42.889Z,18.77351
2022-08-19T11:19:44.501Z,17.37913
2022-08-19T11:24:46.105Z,18.11634
2022-08-19T11:29:47.687Z,18.30755
2022-08-19T11:34:49.307Z,18.27451
2022-08-19T11:39:53.587Z,18.04709
2022-08-19T11:44:55.780Z,17.64752
2022-08-19T11:49:57.396Z,18.27451
2022-08-19T11:54:59.006Z,18.30691
2022-08-19T12:00:00.626Z,18.20368
2022-08-19T12:05:02.283Z,17.94895
2022-08-19T12:10:04.031Z,17.87081
2022-08-19T12:15:05.911Z,17.85938
2022-08-19T12:20:07.497Z,18.04233
2022-08-19T12:25:09.236Z,16.76071
2022-08-19T12:30:10.872Z,16.0521
2022-08-19T12:35:12.459Z,17.75551
2022-08-19T12:40:14.070Z,16.41355
2022-08-19T12:45:15.923Z,17.15266
2022-08-19T12:50:17.826Z,17.24668
2022-08-19T12:55:19.471Z,17.55192
2022-08-19T13:00:21.060Z,17.77711
2022-08-19T13:05:22.654Z,17.38961
2022-08-19T13:10:24.273Z,17.51285
2022-08-19T13:15:25.896Z,17.52047
2022-08-19T13:20:27.508Z,17.73614
2022-08-19T13:25:29.289Z,17.83619
2022-08-19T13:30:30.911Z,17.96356
2022-08-19T13:35:32.522Z,17.4128
2022-08-19T13:40:34.150Z,17.93021
2022-08-19T13:45:35.820Z,18.03947
2022-08-19T13:50:37.421Z,18.07917
2022-08-19T13:55:39.109Z,17.29654
2022-08-19T14:00:40.792Z,18.15191
2022-08-19T14:05:42.424Z,17.93656
2022-08-19T14:10:44.086Z,18.53179
2022-08-19T14:15:45.702Z,18.21925
2022-08-19T14:20:47.444Z,18.86308
2022-08-19T14:25:49.102Z,18.98251
2022-08-19T14:30:50.753Z,19.40528
2022-08-19T14:35:59.605Z,20.53637
2022-08-19T14:41:01.751Z,19.73688
2022-08-19T14:46:03.380Z,19.63715
2022-08-19T14:51:05.008Z,19.42433
2022-08-19T14:56:06.614Z,19.38844
2022-08-19T15:01:08.230Z,19.8201
2022-08-19T15:06:09.854Z,20.51032
2022-08-19T15:11:14.462Z,20.82224
2022-08-19T15:16:18.108Z,22.16744
2022-08-19T15:21:26.892Z,22.65725
2022-08-19T15:26:29.401Z,22.27544
2022-08-19T15:31:31.004Z,22.67123
2022-08-19T15:36:32.691Z,22.23351
2022-08-19T15:41:34.282Z,22.9012
2022-08-19T15:46:38.727Z,23.1569
2022-08-19T15:51:40.333Z,22.86277
2022-08-19T15:56:41.942Z,24.33506
2022-08-19T16:01:47.021Z,24.56218
2022-08-19T16:06:48.731Z,24.88904
2022-08-19T16:11:56.517Z,25.50497
2022-08-19T16:16:58.951Z,25.09647
2022-08-19T16:22:00.567Z,26.78766
2022-08-19T16:27:02.372Z,26.8801
2022-08-19T16:32:03.989Z,27.06847
2022-08-19T16:37:05.685Z,27.45951
2022-08-19T16:42:07.466Z,27.70157
2022-08-19T16:47:09.285Z,27.84039
2022-08-19T16:52:10.876Z,27.69776
2022-08-19T16:57:12.607Z,27.55608
2022-08-19T17:02:14.272Z,28.05576
2022-08-19T17:07:15.878Z,28.14471
2022-08-19T17:12:17.458Z,28.35341
2022-08-19T17:17:19.811Z,28.5834
2022-08-19T17:22:21.562Z,28.49859
2022-08-19T17:27:23.137Z,28.40329
2022-08-19T17:32:25.349Z,28.7848
2022-08-19T17:37:27.099Z,29.0437
2022-08-19T17:42:28.719Z,29.39504
2022-08-19T17:47:30.335Z,28.78639
2022-08-19T17:52:31.953Z,29.67999
2022-08-19T17:57:33.577Z,29.88457
2022-08-19T18:02:35.185Z,30.18572
2022-08-19T18:07:36.802Z,30.82964
2022-08-19T18:12:38.419Z,31.02215
2022-08-19T18:17:40.147Z,31.13524
2022-08-19T18:22:41.712Z,31.25595
2022-08-19T18:27:43.326Z,30.85124
2022-08-19T18:32:44.952Z,31.05518
2022-08-19T18:37:46.559Z,31.12221
2022-08-19T18:42:48.145Z,31.0536
2022-08-19T18:47:49.760Z,30.94527
2022-08-19T18:52:51.358Z,31.23689
2022-08-19T18:57:52.950Z,30.63046
2022-08-19T19:02:55.813Z,30.11869
2022-08-19T19:07:57.390Z,31.59047
2022-08-19T19:12:58.901Z,29.97987
2022-08-19T19:18:00.934Z,30.60917
2022-08-19T19:23:03.335Z,31.16986
2022-08-19T19:28:04.964Z,30.50275
2022-08-19T19:33:06.543Z,31.67719
2022-08-19T19:38:08.144Z,31.01389
2022-08-19T19:43:09.776Z,32.37354
2022-08-19T19:48:11.378Z,31.74327
2022-08-19T19:53:13.018Z,31.95134
2022-08-19T19:58:15.349Z,30.84647
2022-08-19T20:03:17.022Z,32.25219
2022-08-19T20:08:18.998Z,32.29857
2022-08-19T20:13:20.790Z,32.64579
2022-08-19T20:18:22.412Z,31.42782
2022-08-19T20:23:24.028Z,32.73379
2022-08-19T20:28:25.858Z,32.34368
2022-08-19T20:33:27.484Z,32.94123
2022-08-19T20:38:29.071Z,33.28083
2022-08-19T20:43:30.674Z,34.09601
2022-08-19T20:48:32.288Z,33.2875
2022-08-19T20:53:33.954Z,33.68429
2022-08-19T20:58:35.604Z,31.86938
2022-08-19T21:03:42.484Z,33.62202
2022-08-19T21:08:45.271Z,32.95902
2022-08-19T21:13:50.857Z,31.93705
2022-08-19T21:18:52.464Z,32.01869
2022-08-19T21:23:54.098Z,34.13127
2022-08-19T21:28:55.700Z,31.07615
2022-08-19T21:33:57.332Z,32.93392
2022-08-19T21:38:58.989Z,32.3567
2022-08-19T21:44:00.593Z,31.99518
2022-08-19T21:49:02.148Z,32.86181
2022-08-19T21:54:03.754Z,34.2755
2022-08-19T21:59:05.352Z,32.57971
2022-08-19T22:04:06.926Z,34.31584
2022-08-19T22:09:08.600Z,34.57476
2022-08-19T22:14:10.269Z,35.00173
2022-08-19T22:19:12.030Z,32.90374
2022-08-19T22:24:13.644Z,32.36814
2022-08-19T22:29:15.755Z,31.78806
2022-08-19T22:34:18.864Z,31.49008
2022-08-19T22:39:20.508Z,32.17912
2022-08-19T22:44:22.180Z,33.68874
2022-08-19T22:49:23.807Z,31.9434
2022-08-19T22:54:25.564Z,33.82756
2022-08-19T22:59:27.209Z,32.81162
2022-08-19T23:04:28.884Z,34.57253
2022-08-19T23:09:30.657Z,32.08223
2022-08-19T23:14:32.326Z,33.01716
2022-08-19T23:19:33.923Z,33.75291
2022-08-19T23:24:35.585Z,31.97549
2022-08-19T23:29:37.162Z,30.77722
2022-08-19T23:34:38.773Z,28.99795
2022-08-19T23:39:40.784Z,29.38551
2022-08-19T23:44:51.502Z,30.48051
2022-08-19T23:49:54.232Z,29.85153
2022-08-19T23:54:55.849Z,30.00083
2022-08-19T23:59:57.472Z,30.13679
